sensor_id;sensor_type;location;lat;lon;timestamp;temperature;humidity
13998;DHT22;7074;51.508;7.018;2023-02-28T00:01:30;3.30;99.90
13998;DHT22;7074;51.508;7.018;2023-02-28T00:03:59;3.30;99.90
13998;DHT22;7074;51.508;7.018;2023-02-28T00:06:27;3.30;99.90
13998;DHT22;7074;51.508;7.018;2023-02-28T00:08:54;3.30;99.90
13998;DHT22;7074;51.508;7.018;2023-02-28T00:11:23;3.10;99.90
13998;DHT22;7074;51.508;7.018;2023-02-28T00:13:50;3.10;99.90
13998;DHT22;7074;51.508;7.018;2023-02-28T00:16:18;3.10;99.90
13998;DHT22;7074;51.508;7.018;2023-02-28T00:18:46;3.20;99.90
13998;DHT22;7074;51.508;7.018;2023-02-28T00:21:16;3.10;99.90
13998;DHT22;7074;51.508;7.018;2023-02-28T00:23:43;3.10;99.90
13998;DHT22;7074;51.508;7.018;2023-02-28T00:26:11;3.20;99.90
13998;DHT22;7074;51.508;7.018;2023-02-28T00:28:40;3.10;99.90
13998;DHT22;7074;51.508;7.018;2023-02-28T00:31:07;3.10;99.90
13998;DHT22;7074;51.508;7.018;2023-02-28T00:33:35;3.20;99.90
13998;DHT22;7074;51.508;7.018;2023-02-28T00:36:12;3.10;99.90
13998;DHT22;7074;51.508;7.018;2023-02-28T00:38:41;3.10;99.90
13998;DHT22;7074;51.508;7.018;2023-02-28T00:41:08;3.20;99.90
13998;DHT22;7074;51.508;7.018;2023-02-28T00:43:38;3.20;99.90
13998;DHT22;7074;51.508;7.018;2023-02-28T00:46:06;3.10;99.90
13998;DHT22;7074;51.508;7.018;2023-02-28T00:48:33;3.20;99.90
13998;DHT22;7074;51.508;7.018;2023-02-28T00:51:01;3.10;99.90
13998;DHT22;7074;51.508;7.018;2023-02-28T00:53:29;3.20;99.90
13998;DHT22;7074;51.508;7.018;2023-02-28T00:55:59;3.20;99.90
13998;DHT22;7074;51.508;7.018;2023-02-28T00:58:26;3.20;99.90
13998;DHT22;7074;51.508;7.018;2023-02-28T01:00:54;3.20;99.90
13998;DHT22;7074;51.508;7.018;2023-02-28T01:03:22;3.20;99.90
13998;DHT22;7074;51.508;7.018;2023-02-28T01:05:49;3.20;99.90
13998;DHT22;7074;51.508;7.018;2023-02-28T01:08:16;3.20;99.90
13998;DHT22;7074;51.508;7.018;2023-02-28T01:10:43;3.20;99.90
13998;DHT22;7074;51.508;7.018;2023-02-28T01:13:12;3.10;99.90
13998;DHT22;7074;51.508;7.018;2023-02-28T01:15:42;3.00;99.90
13998;DHT22;7074;51.508;7.018;2023-02-28T01:18:11;3.00;99.90
13998;DHT22;7074;51.508;7.018;2023-02-28T01:20:38;3.00;99.90
13998;DHT22;7074;51.508;7.018;2023-02-28T01:23:05;3.00;99.90
13998;DHT22;7074;51.508;7.018;2023-02-28T01:25:34;3.00;99.90
13998;DHT22;7074;51.508;7.018;2023-02-28T01:28:04;3.00;99.90
13998;DHT22;7074;51.508;7.018;2023-02-28T01:30:33;3.00;99.90
13998;DHT22;7074;51.508;7.018;2023-02-28T01:33:00;3.00;99.90
13998;DHT22;7074;51.508;7.018;2023-02-28T01:35:27;3.00;99.90
13998;DHT22;7074;51.508;7.018;2023-02-28T01:37:54;3.00;99.90
13998;DHT22;7074;51.508;7.018;2023-02-28T01:40:22;3.00;99.90
13998;DHT22;7074;51.508;7.018;2023-02-28T01:42:49;2.90;99.90
13998;DHT22;7074;51.508;7.018;2023-02-28T01:45:22;2.90;99.90
13998;DHT22;7074;51.508;7.018;2023-02-28T01:47:53;2.90;99.90
13998;DHT22;7074;51.508;7.018;2023-02-28T01:50:22;2.90;99.90
13998;DHT22;7074;51.508;7.018;2023-02-28T01:52:51;2.80;99.90
13998;DHT22;7074;51.508;7.018;2023-02-28T01:55:23;2.70;99.90
13998;DHT22;7074;51.508;7.018;2023-02-28T01:57:59;2.60;99.90
13998;DHT22;7074;51.508;7.018;2023-02-28T02:00:28;2.60;99.90
13998;DHT22;7074;51.508;7.018;2023-02-28T02:03:00;2.50;99.90
13998;DHT22;7074;51.508;7.018;2023-02-28T02:05:30;2.50;99.90
13998;DHT22;7074;51.508;7.018;2023-02-28T02:08:03;2.40;99.90
13998;DHT22;7074;51.508;7.018;2023-02-28T02:10:34;2.40;99.90
13998;DHT22;7074;51.508;7.018;2023-02-28T02:13:11;2.30;99.90
13998;DHT22;7074;51.508;7.018;2023-02-28T02:15:46;2.20;99.90
13998;DHT22;7074;51.508;7.018;2023-02-28T02:18:24;2.30;99.90
13998;DHT22;7074;51.508;7.018;2023-02-28T02:21:16;2.20;99.90
13998;DHT22;7074;51.508;7.018;2023-02-28T02:27:13;2.20;99.90
13998;DHT22;7074;51.508;7.018;2023-02-28T02:33:00;2.00;99.90
13998;DHT22;7074;51.508;7.018;2023-02-28T02:35:43;2.00;99.90
13998;DHT22;7074;51.508;7.018;2023-02-28T02:38:19;1.90;99.90
13998;DHT22;7074;51.508;7.018;2023-02-28T02:40:56;1.90;99.90
13998;DHT22;7074;51.508;7.018;2023-02-28T02:43:26;1.80;99.90
13998;DHT22;7074;51.508;7.018;2023-02-28T02:45:59;1.80;99.90
13998;DHT22;7074;51.508;7.018;2023-02-28T02:48:30;1.80;99.90
13998;DHT22;7074;51.508;7.018;2023-02-28T02:51:03;1.70;99.90
13998;DHT22;7074;51.508;7.018;2023-02-28T02:53:42;1.70;99.90
13998;DHT22;7074;51.508;7.018;2023-02-28T02:56:12;1.70;99.90
13998;DHT22;7074;51.508;7.018;2023-02-28T02:58:42;1.70;99.90
13998;DHT22;7074;51.508;7.018;2023-02-28T03:01:12;1.70;99.90
13998;DHT22;7074;51.508;7.018;2023-02-28T03:03:40;1.60;99.90
13998;DHT22;7074;51.508;7.018;2023-02-28T03:06:09;1.60;99.90
13998;DHT22;7074;51.508;7.018;2023-02-28T03:08:38;1.60;99.90
13998;DHT22;7074;51.508;7.018;2023-02-28T03:11:06;1.60;99.90
13998;DHT22;7074;51.508;7.018;2023-02-28T03:14:04;1.50;99.90
13998;DHT22;7074;51.508;7.018;2023-02-28T03:19:42;1.40;99.90
13998;DHT22;7074;51.508;7.018;2023-02-28T03:22:37;1.30;99.90
13998;DHT22;7074;51.508;7.018;2023-02-28T03:25:11;1.30;99.90
13998;DHT22;7074;51.508;7.018;2023-02-28T03:27:46;1.20;99.90
13998;DHT22;7074;51.508;7.018;2023-02-28T03:30:24;1.20;99.90
13998;DHT22;7074;51.508;7.018;2023-02-28T03:32:57;1.10;99.90
13998;DHT22;7074;51.508;7.018;2023-02-28T03:35:34;1.10;99.90
13998;DHT22;7074;51.508;7.018;2023-02-28T03:38:10;1.10;99.90
13998;DHT22;7074;51.508;7.018;2023-02-28T03:40:45;1.10;99.90
13998;DHT22;7074;51.508;7.018;2023-02-28T03:43:19;1.10;99.90
13998;DHT22;7074;51.508;7.018;2023-02-28T03:45:50;1.10;99.90
13998;DHT22;7074;51.508;7.018;2023-02-28T03:48:21;1.00;99.90
13998;DHT22;7074;51.508;7.018;2023-02-28T03:50:53;1.00;99.90
13998;DHT22;7074;51.508;7.018;2023-02-28T03:53:28;1.00;99.90
13998;DHT22;7074;51.508;7.018;2023-02-28T03:55:59;1.00;99.90
13998;DHT22;7074;51.508;7.018;2023-02-28T03:58:31;0.90;99.90
13998;DHT22;7074;51.508;7.018;2023-02-28T04:01:10;0.90;99.90
13998;DHT22;7074;51.508;7.018;2023-02-28T04:03:39;0.90;99.90
13998;DHT22;7074;51.508;7.018;2023-02-28T04:06:08;0.90;99.90
13998;DHT22;7074;51.508;7.018;2023-02-28T04:08:41;0.80;99.90
13998;DHT22;7074;51.508;7.018;2023-02-28T04:11:20;0.80;99.90
13998;DHT22;7074;51.508;7.018;2023-02-28T04:13:48;0.80;99.90
13998;DHT22;7074;51.508;7.018;2023-02-28T04:16:16;0.80;99.90
13998;DHT22;7074;51.508;7.018;2023-02-28T04:18:43;0.80;99.90
13998;DHT22;7074;51.508;7.018;2023-02-28T04:21:11;0.80;99.90
13998;DHT22;7074;51.508;7.018;2023-02-28T04:23:38;0.70;99.90
13998;DHT22;7074;51.508;7.018;2023-02-28T04:26:07;0.70;99.90
13998;DHT22;7074;51.508;7.018;2023-02-28T04:28:37;0.60;99.90
13998;DHT22;7074;51.508;7.018;2023-02-28T04:31:05;0.60;99.90
13998;DHT22;7074;51.508;7.018;2023-02-28T04:33:33;0.60;99.90
13998;DHT22;7074;51.508;7.018;2023-02-28T04:36:01;0.60;99.90
13998;DHT22;7074;51.508;7.018;2023-02-28T04:38:29;0.60;99.90
13998;DHT22;7074;51.508;7.018;2023-02-28T05:36:25;0.50;99.90
13998;DHT22;7074;51.508;7.018;2023-02-28T05:46:49;0.50;99.90
13998;DHT22;7074;51.508;7.018;2023-02-28T05:49:16;0.50;99.90
13998;DHT22;7074;51.508;7.018;2023-02-28T05:51:45;0.40;99.90
13998;DHT22;7074;51.508;7.018;2023-02-28T05:54:12;0.50;99.90
13998;DHT22;7074;51.508;7.018;2023-02-28T05:56:48;0.40;99.90
13998;DHT22;7074;51.508;7.018;2023-02-28T05:59:41;0.40;99.90
13998;DHT22;7074;51.508;7.018;2023-02-28T06:02:12;0.30;99.90
13998;DHT22;7074;51.508;7.018;2023-02-28T06:04:43;0.30;99.90
13998;DHT22;7074;51.508;7.018;2023-02-28T06:07:16;0.30;99.90
13998;DHT22;7074;51.508;7.018;2023-02-28T06:09:44;0.30;99.90
13998;DHT22;7074;51.508;7.018;2023-02-28T06:12:17;0.30;99.90
13998;DHT22;7074;51.508;7.018;2023-02-28T06:14:47;0.30;99.90
13998;DHT22;7074;51.508;7.018;2023-02-28T06:17:14;0.30;99.90
13998;DHT22;7074;51.508;7.018;2023-02-28T06:19:41;0.30;99.90
13998;DHT22;7074;51.508;7.018;2023-02-28T06:22:13;0.30;99.90
13998;DHT22;7074;51.508;7.018;2023-02-28T06:24:41;0.20;99.90
13998;DHT22;7074;51.508;7.018;2023-02-28T06:27:11;0.20;99.90
13998;DHT22;7074;51.508;7.018;2023-02-28T06:29:39;0.10;99.90
13998;DHT22;7074;51.508;7.018;2023-02-28T06:32:08;0.10;99.90
13998;DHT22;7074;51.508;7.018;2023-02-28T06:34:37;0.00;99.90
13998;DHT22;7074;51.508;7.018;2023-02-28T06:37:21;0.00;99.90
13998;DHT22;7074;51.508;7.018;2023-02-28T06:39:52;0.00;99.90
13998;DHT22;7074;51.508;7.018;2023-02-28T06:42:22;0.00;99.90
13998;DHT22;7074;51.508;7.018;2023-02-28T06:44:58;0.10;99.90
13998;DHT22;7074;51.508;7.018;2023-02-28T06:47:35;0.10;99.90
13998;DHT22;7074;51.508;7.018;2023-02-28T06:50:05;0.20;99.90
13998;DHT22;7074;51.508;7.018;2023-02-28T06:52:34;0.30;99.90
13998;DHT22;7074;51.508;7.018;2023-02-28T06:55:06;0.40;99.90
13998;DHT22;7074;51.508;7.018;2023-02-28T06:57:36;0.50;99.90
13998;DHT22;7074;51.508;7.018;2023-02-28T07:00:06;0.60;99.90
13998;DHT22;7074;51.508;7.018;2023-02-28T07:02:34;0.70;99.90
13998;DHT22;7074;51.508;7.018;2023-02-28T07:05:01;0.80;99.90
13998;DHT22;7074;51.508;7.018;2023-02-28T07:07:30;0.80;99.90
13998;DHT22;7074;51.508;7.018;2023-02-28T07:10:02;0.80;99.90
13998;DHT22;7074;51.508;7.018;2023-02-28T07:12:30;0.90;99.90
13998;DHT22;7074;51.508;7.018;2023-02-28T07:14:58;0.90;99.90
13998;DHT22;7074;51.508;7.018;2023-02-28T07:17:26;1.10;99.90
13998;DHT22;7074;51.508;7.018;2023-02-28T07:19:53;1.10;99.90
13998;DHT22;7074;51.508;7.018;2023-02-28T07:22:20;1.20;99.90
13998;DHT22;7074;51.508;7.018;2023-02-28T07:24:48;1.30;99.90
13998;DHT22;7074;51.508;7.018;2023-02-28T07:27:18;1.40;99.90
13998;DHT22;7074;51.508;7.018;2023-02-28T07:29:53;1.50;99.90
13998;DHT22;7074;51.508;7.018;2023-02-28T07:32:37;1.50;99.90
13998;DHT22;7074;51.508;7.018;2023-02-28T07:35:05;1.60;99.90
13998;DHT22;7074;51.508;7.018;2023-02-28T07:37:33;1.70;99.90
13998;DHT22;7074;51.508;7.018;2023-02-28T07:40:02;1.70;99.90
13998;DHT22;7074;51.508;7.018;2023-02-28T07:42:38;1.80;99.90
13998;DHT22;7074;51.508;7.018;2023-02-28T07:45:07;1.90;99.90
13998;DHT22;7074;51.508;7.018;2023-02-28T07:47:37;2.00;99.90
13998;DHT22;7074;51.508;7.018;2023-02-28T07:50:05;2.10;99.90
13998;DHT22;7074;51.508;7.018;2023-02-28T07:52:33;2.20;99.90
13998;DHT22;7074;51.508;7.018;2023-02-28T07:55:00;2.30;99.90
13998;DHT22;7074;51.508;7.018;2023-02-28T07:57:27;2.40;99.90
13998;DHT22;7074;51.508;7.018;2023-02-28T07:59:56;2.40;99.90
13998;DHT22;7074;51.508;7.018;2023-02-28T08:02:23;2.50;99.90
13998;DHT22;7074;51.508;7.018;2023-02-28T08:04:51;2.60;99.90
13998;DHT22;7074;51.508;7.018;2023-02-28T08:07:18;2.60;99.90
13998;DHT22;7074;51.508;7.018;2023-02-28T08:09:45;2.70;99.90
13998;DHT22;7074;51.508;7.018;2023-02-28T08:12:17;2.70;99.90
13998;DHT22;7074;51.508;7.018;2023-02-28T08:14:53;2.70;99.90
13998;DHT22;7074;51.508;7.018;2023-02-28T08:17:31;2.80;99.90
13998;DHT22;7074;51.508;7.018;2023-02-28T08:19:59;2.80;99.90
13998;DHT22;7074;51.508;7.018;2023-02-28T08:22:41;2.80;99.90
13998;DHT22;7074;51.508;7.018;2023-02-28T08:25:22;2.90;99.90
13998;DHT22;7074;51.508;7.018;2023-02-28T08:28:00;2.80;99.90
13998;DHT22;7074;51.508;7.018;2023-02-28T08:30:46;2.90;99.90
13998;DHT22;7074;51.508;7.018;2023-02-28T08:33:31;3.10;99.90
13998;DHT22;7074;51.508;7.018;2023-02-28T08:36:10;3.20;99.90
13998;DHT22;7074;51.508;7.018;2023-02-28T08:38:47;3.30;99.90
13998;DHT22;7074;51.508;7.018;2023-02-28T08:41:14;3.40;99.90
13998;DHT22;7074;51.508;7.018;2023-02-28T08:44:24;3.40;99.90
13998;DHT22;7074;51.508;7.018;2023-02-28T08:47:00;3.50;99.90
13998;DHT22;7074;51.508;7.018;2023-02-28T08:49:29;3.40;99.90
13998;DHT22;7074;51.508;7.018;2023-02-28T08:52:01;3.50;99.90
13998;DHT22;7074;51.508;7.018;2023-02-28T08:54:29;3.60;99.90
13998;DHT22;7074;51.508;7.018;2023-02-28T08:56:57;3.80;99.90
13998;DHT22;7074;51.508;7.018;2023-02-28T08:59:24;4.00;99.90
13998;DHT22;7074;51.508;7.018;2023-02-28T09:01:54;3.90;99.90
13998;DHT22;7074;51.508;7.018;2023-02-28T09:04:22;4.00;99.70
13998;DHT22;7074;51.508;7.018;2023-02-28T09:06:55;4.00;99.70
13998;DHT22;7074;51.508;7.018;2023-02-28T09:09:22;4.00;99.90
13998;DHT22;7074;51.508;7.018;2023-02-28T09:12:37;4.00;99.50
13998;DHT22;7074;51.508;7.018;2023-02-28T09:15:13;4.20;99.50
13998;DHT22;7074;51.508;7.018;2023-02-28T09:17:56;4.30;98.10
13998;DHT22;7074;51.508;7.018;2023-02-28T09:20:29;4.40;97.40
13998;DHT22;7074;51.508;7.018;2023-02-28T09:23:23;4.60;96.80
13998;DHT22;7074;51.508;7.018;2023-02-28T09:26:14;4.70;96.40
13998;DHT22;7074;51.508;7.018;2023-02-28T09:30:43;4.70;95.10
13998;DHT22;7074;51.508;7.018;2023-02-28T09:32:00;4.70;94.60
13998;DHT22;7074;51.508;7.018;2023-02-28T09:34:41;4.80;94.40
13998;DHT22;7074;51.508;7.018;2023-02-28T09:37:20;5.00;93.20
13998;DHT22;7074;51.508;7.018;2023-02-28T09:39:50;5.00;92.20
13998;DHT22;7074;51.508;7.018;2023-02-28T09:42:21;5.10;91.80
13998;DHT22;7074;51.508;7.018;2023-02-28T09:44:52;5.30;92.50
13998;DHT22;7074;51.508;7.018;2023-02-28T09:47:28;5.40;90.90
13998;DHT22;7074;51.508;7.018;2023-02-28T09:50:15;5.40;90.80
13998;DHT22;7074;51.508;7.018;2023-02-28T09:53:19;5.40;88.50
13998;DHT22;7074;51.508;7.018;2023-02-28T09:55:51;5.60;89.00
13998;DHT22;7074;51.508;7.018;2023-02-28T09:58:32;5.60;88.70
13998;DHT22;7074;51.508;7.018;2023-02-28T10:01:05;5.80;89.40
13998;DHT22;7074;51.508;7.018;2023-02-28T10:03:38;5.80;89.00
13998;DHT22;7074;51.508;7.018;2023-02-28T10:06:13;5.80;88.80
13998;DHT22;7074;51.508;7.018;2023-02-28T10:08:49;5.80;88.60
13998;DHT22;7074;51.508;7.018;2023-02-28T10:11:38;5.90;87.60
13998;DHT22;7074;51.508;7.018;2023-02-28T10:14:11;5.90;85.90
13998;DHT22;7074;51.508;7.018;2023-02-28T10:16:43;5.90;85.60
13998;DHT22;7074;51.508;7.018;2023-02-28T10:19:21;6.00;87.60
13998;DHT22;7074;51.508;7.018;2023-02-28T10:21:54;6.10;86.10
13998;DHT22;7074;51.508;7.018;2023-02-28T10:24:29;6.00;83.80
13998;DHT22;7074;51.508;7.018;2023-02-28T10:27:05;6.20;85.10
13998;DHT22;7074;51.508;7.018;2023-02-28T10:29:33;6.00;84.30
13998;DHT22;7074;51.508;7.018;2023-02-28T10:32:02;6.10;83.60
13998;DHT22;7074;51.508;7.018;2023-02-28T10:34:30;6.10;84.00
13998;DHT22;7074;51.508;7.018;2023-02-28T10:36:59;6.20;83.40
13998;DHT22;7074;51.508;7.018;2023-02-28T10:39:41;6.00;83.80
13998;DHT22;7074;51.508;7.018;2023-02-28T10:42:27;5.90;83.50
13998;DHT22;7074;51.508;7.018;2023-02-28T10:45:12;5.80;83.50
13998;DHT22;7074;51.508;7.018;2023-02-28T10:47:49;5.50;83.10
13998;DHT22;7074;51.508;7.018;2023-02-28T10:50:30;5.40;81.40
13998;DHT22;7074;51.508;7.018;2023-02-28T10:53:13;5.30;80.70
13998;DHT22;7074;51.508;7.018;2023-02-28T10:55:42;5.40;81.10
13998;DHT22;7074;51.508;7.018;2023-02-28T10:58:26;5.70;83.10
13998;DHT22;7074;51.508;7.018;2023-02-28T11:00:54;5.90;79.10
13998;DHT22;7074;51.508;7.018;2023-02-28T11:03:28;6.00;78.80
13998;DHT22;7074;51.508;7.018;2023-02-28T11:05:56;6.10;78.40
13998;DHT22;7074;51.508;7.018;2023-02-28T11:08:23;6.30;76.80
13998;DHT22;7074;51.508;7.018;2023-02-28T11:10:55;6.50;74.90
13998;DHT22;7074;51.508;7.018;2023-02-28T11:13:31;6.40;75.60
13998;DHT22;7074;51.508;7.018;2023-02-28T11:16:02;6.40;73.60
13998;DHT22;7074;51.508;7.018;2023-02-28T11:18:36;6.60;72.00
13998;DHT22;7074;51.508;7.018;2023-02-28T11:21:05;6.50;71.50
13998;DHT22;7074;51.508;7.018;2023-02-28T11:23:35;6.60;71.00
13998;DHT22;7074;51.508;7.018;2023-02-28T11:26:04;6.60;71.50
13998;DHT22;7074;51.508;7.018;2023-02-28T11:28:38;6.60;70.80
13998;DHT22;7074;51.508;7.018;2023-02-28T11:31:16;6.80;70.60
13998;DHT22;7074;51.508;7.018;2023-02-28T11:33:47;7.10;69.50
13998;DHT22;7074;51.508;7.018;2023-02-28T11:36:19;7.10;68.50
13998;DHT22;7074;51.508;7.018;2023-02-28T11:38:47;7.10;68.00
13998;DHT22;7074;51.508;7.018;2023-02-28T11:41:30;7.00;66.40
13998;DHT22;7074;51.508;7.018;2023-02-28T11:44:22;6.80;66.00
13998;DHT22;7074;51.508;7.018;2023-02-28T11:46:52;6.60;65.50
13998;DHT22;7074;51.508;7.018;2023-02-28T11:49:30;6.40;66.50
13998;DHT22;7074;51.508;7.018;2023-02-28T11:52:02;6.40;67.50
13998;DHT22;7074;51.508;7.018;2023-02-28T11:54:59;6.60;68.40
13998;DHT22;7074;51.508;7.018;2023-02-28T11:57:36;6.70;68.90
13998;DHT22;7074;51.508;7.018;2023-02-28T12:00:19;6.70;68.30
13998;DHT22;7074;51.508;7.018;2023-02-28T12:03:02;6.80;68.00
13998;DHT22;7074;51.508;7.018;2023-02-28T12:05:35;6.70;68.90
13998;DHT22;7074;51.508;7.018;2023-02-28T12:08:20;6.80;68.40
13998;DHT22;7074;51.508;7.018;2023-02-28T12:10:58;6.80;69.90
13998;DHT22;7074;51.508;7.018;2023-02-28T12:13:36;6.80;69.30
13998;DHT22;7074;51.508;7.018;2023-02-28T12:16:24;6.70;69.80
13998;DHT22;7074;51.508;7.018;2023-02-28T12:19:04;6.70;69.80
13998;DHT22;7074;51.508;7.018;2023-02-28T12:21:42;6.90;70.60
13998;DHT22;7074;51.508;7.018;2023-02-28T12:24:26;6.70;69.00
13998;DHT22;7074;51.508;7.018;2023-02-28T12:26:58;7.00;70.60
13998;DHT22;7074;51.508;7.018;2023-02-28T12:29:28;7.00;70.10
13998;DHT22;7074;51.508;7.018;2023-02-28T12:32:01;7.10;70.60
13998;DHT22;7074;51.508;7.018;2023-02-28T12:34:34;7.10;70.70
13998;DHT22;7074;51.508;7.018;2023-02-28T12:37:07;7.30;71.30
13998;DHT22;7074;51.508;7.018;2023-02-28T12:39:37;7.30;71.30
13998;DHT22;7074;51.508;7.018;2023-02-28T12:42:10;7.20;71.00
13998;DHT22;7074;51.508;7.018;2023-02-28T12:44:44;7.20;71.10
13998;DHT22;7074;51.508;7.018;2023-02-28T12:47:16;7.10;71.50
13998;DHT22;7074;51.508;7.018;2023-02-28T12:49:48;7.00;71.90
13998;DHT22;7074;51.508;7.018;2023-02-28T12:52:22;7.00;72.80
13998;DHT22;7074;51.508;7.018;2023-02-28T12:54:53;7.10;73.20
13998;DHT22;7074;51.508;7.018;2023-02-28T12:57:31;7.00;72.50
13998;DHT22;7074;51.508;7.018;2023-02-28T13:00:03;7.20;73.40
13998;DHT22;7074;51.508;7.018;2023-02-28T13:02:51;7.40;73.70
13998;DHT22;7074;51.508;7.018;2023-02-28T13:05:38;7.30;73.00
13998;DHT22;7074;51.508;7.018;2023-02-28T13:08:27;7.30;73.80
13998;DHT22;7074;51.508;7.018;2023-02-28T13:10:58;7.10;73.90
13998;DHT22;7074;51.508;7.018;2023-02-28T13:13:27;7.20;74.00
13998;DHT22;7074;51.508;7.018;2023-02-28T13:16:00;7.20;74.50
13998;DHT22;7074;51.508;7.018;2023-02-28T13:18:32;7.30;75.40
13998;DHT22;7074;51.508;7.018;2023-02-28T13:21:02;7.30;75.10
13998;DHT22;7074;51.508;7.018;2023-02-28T13:23:39;7.40;75.80
13998;DHT22;7074;51.508;7.018;2023-02-28T13:26:07;7.50;78.00
13998;DHT22;7074;51.508;7.018;2023-02-28T13:35:46;7.50;75.30
13998;DHT22;7074;51.508;7.018;2023-02-28T13:38:35;7.40;76.50
13998;DHT22;7074;51.508;7.018;2023-02-28T13:44:08;7.40;78.20
13998;DHT22;7074;51.508;7.018;2023-02-28T13:49:40;7.70;78.60
13998;DHT22;7074;51.508;7.018;2023-02-28T13:52:15;7.60;75.90
13998;DHT22;7074;51.508;7.018;2023-02-28T13:55:10;7.90;78.40
13998;DHT22;7074;51.508;7.018;2023-02-28T13:57:53;8.00;79.40
13998;DHT22;7074;51.508;7.018;2023-02-28T14:00:33;8.20;80.40
13998;DHT22;7074;51.508;7.018;2023-02-28T14:03:18;8.00;77.10
13998;DHT22;7074;51.508;7.018;2023-02-28T14:06:15;8.00;77.00
13998;DHT22;7074;51.508;7.018;2023-02-28T14:08:53;8.30;81.00
13998;DHT22;7074;51.508;7.018;2023-02-28T14:11:30;8.30;78.20
13998;DHT22;7074;51.508;7.018;2023-02-28T14:14:02;8.20;76.60
13998;DHT22;7074;51.508;7.018;2023-02-28T14:16:38;8.00;76.70
13998;DHT22;7074;51.508;7.018;2023-02-28T14:19:12;8.20;78.20
13998;DHT22;7074;51.508;7.018;2023-02-28T14:21:50;8.10;75.80
13998;DHT22;7074;51.508;7.018;2023-02-28T14:24:55;8.10;75.60
13998;DHT22;7074;51.508;7.018;2023-02-28T14:27:38;8.20;75.50
13998;DHT22;7074;51.508;7.018;2023-02-28T15:50:41;7.30;87.50
13998;DHT22;7074;51.508;7.018;2023-02-28T15:53:13;7.20;88.50
13998;DHT22;7074;51.508;7.018;2023-02-28T15:55:45;7.00;89.40
13998;DHT22;7074;51.508;7.018;2023-02-28T15:58:19;7.10;90.00
13998;DHT22;7074;51.508;7.018;2023-02-28T16:01:00;7.10;90.30
13998;DHT22;7074;51.508;7.018;2023-02-28T16:03:39;7.10;90.20
13998;DHT22;7074;51.508;7.018;2023-02-28T16:06:34;7.10;90.20
13998;DHT22;7074;51.508;7.018;2023-02-28T16:09:02;6.90;90.60
13998;DHT22;7074;51.508;7.018;2023-02-28T16:11:30;6.80;89.40
13998;DHT22;7074;51.508;7.018;2023-02-28T16:13:58;6.70;88.70
13998;DHT22;7074;51.508;7.018;2023-02-28T16:16:26;6.70;89.30
13998;DHT22;7074;51.508;7.018;2023-02-28T16:18:53;6.70;89.70
13998;DHT22;7074;51.508;7.018;2023-02-28T16:21:22;6.70;89.50
13998;DHT22;7074;51.508;7.018;2023-02-28T16:23:51;6.70;90.00
13998;DHT22;7074;51.508;7.018;2023-02-28T16:26:21;6.70;90.00
13998;DHT22;7074;51.508;7.018;2023-02-28T16:28:49;6.80;90.70
13998;DHT22;7074;51.508;7.018;2023-02-28T16:31:18;6.80;90.50
13998;DHT22;7074;51.508;7.018;2023-02-28T16:33:46;6.70;89.40
13998;DHT22;7074;51.508;7.018;2023-02-28T16:36:16;6.70;89.40
13998;DHT22;7074;51.508;7.018;2023-02-28T16:38:45;6.70;89.70
13998;DHT22;7074;51.508;7.018;2023-02-28T16:41:16;6.60;90.00
13998;DHT22;7074;51.508;7.018;2023-02-28T16:43:46;6.60;90.20
13998;DHT22;7074;51.508;7.018;2023-02-28T16:46:16;6.50;90.40
13998;DHT22;7074;51.508;7.018;2023-02-28T16:48:44;6.50;90.70
13998;DHT22;7074;51.508;7.018;2023-02-28T16:51:13;6.50;90.90
13998;DHT22;7074;51.508;7.018;2023-02-28T16:53:40;6.40;91.00
13998;DHT22;7074;51.508;7.018;2023-02-28T16:56:20;6.50;91.30
13998;DHT22;7074;51.508;7.018;2023-02-28T16:58:49;6.60;91.60
13998;DHT22;7074;51.508;7.018;2023-02-28T17:01:17;6.50;91.70
13998;DHT22;7074;51.508;7.018;2023-02-28T17:03:47;6.40;92.10
13998;DHT22;7074;51.508;7.018;2023-02-28T17:06:18;6.40;92.50
13998;DHT22;7074;51.508;7.018;2023-02-28T17:08:47;6.40;92.90
13998;DHT22;7074;51.508;7.018;2023-02-28T17:11:14;6.40;93.60
13998;DHT22;7074;51.508;7.018;2023-02-28T17:13:43;6.30;93.20
13998;DHT22;7074;51.508;7.018;2023-02-28T17:16:19;6.30;93.40
13998;DHT22;7074;51.508;7.018;2023-02-28T17:18:47;6.40;93.70
13998;DHT22;7074;51.508;7.018;2023-02-28T17:21:15;6.30;93.60
13998;DHT22;7074;51.508;7.018;2023-02-28T17:23:43;6.30;93.60
13998;DHT22;7074;51.508;7.018;2023-02-28T17:26:13;6.40;93.80
13998;DHT22;7074;51.508;7.018;2023-02-28T17:28:40;6.40;94.00
13998;DHT22;7074;51.508;7.018;2023-02-28T17:31:10;6.40;94.10
13998;DHT22;7074;51.508;7.018;2023-02-28T17:33:37;6.40;94.10
13998;DHT22;7074;51.508;7.018;2023-02-28T17:36:05;6.30;94.30
13998;DHT22;7074;51.508;7.018;2023-02-28T17:38:33;6.30;94.40
13998;DHT22;7074;51.508;7.018;2023-02-28T17:41:00;6.30;94.50
13998;DHT22;7074;51.508;7.018;2023-02-28T17:43:28;6.40;94.70
13998;DHT22;7074;51.508;7.018;2023-02-28T17:45:55;6.30;94.70
13998;DHT22;7074;51.508;7.018;2023-02-28T17:48:25;6.40;96.20
13998;DHT22;7074;51.508;7.018;2023-02-28T17:50:53;6.40;96.00
13998;DHT22;7074;51.508;7.018;2023-02-28T17:53:20;6.30;95.40
13998;DHT22;7074;51.508;7.018;2023-02-28T17:55:48;6.30;95.40
13998;DHT22;7074;51.508;7.018;2023-02-28T17:58:16;6.30;95.50
13998;DHT22;7074;51.508;7.018;2023-02-28T18:00:44;6.30;95.50
13998;DHT22;7074;51.508;7.018;2023-02-28T18:03:12;6.30;95.50
13998;DHT22;7074;51.508;7.018;2023-02-28T18:05:41;6.30;95.50
13998;DHT22;7074;51.508;7.018;2023-02-28T18:08:10;6.30;95.70
13998;DHT22;7074;51.508;7.018;2023-02-28T18:10:39;6.20;95.70
13998;DHT22;7074;51.508;7.018;2023-02-28T18:13:06;6.20;95.90
13998;DHT22;7074;51.508;7.018;2023-02-28T18:15:35;6.10;95.90
13998;DHT22;7074;51.508;7.018;2023-02-28T18:18:02;6.10;96.00
13998;DHT22;7074;51.508;7.018;2023-02-28T18:20:31;6.10;96.00
13998;DHT22;7074;51.508;7.018;2023-02-28T18:23:00;6.10;96.40
13998;DHT22;7074;51.508;7.018;2023-02-28T18:25:27;6.10;96.60
13998;DHT22;7074;51.508;7.018;2023-02-28T18:27:54;6.00;96.70
13998;DHT22;7074;51.508;7.018;2023-02-28T18:30:26;6.00;97.80
13998;DHT22;7074;51.508;7.018;2023-02-28T18:32:55;6.00;99.90
13998;DHT22;7074;51.508;7.018;2023-02-28T18:35:22;6.00;98.90
13998;DHT22;7074;51.508;7.018;2023-02-28T18:38:07;5.90;98.50
13998;DHT22;7074;51.508;7.018;2023-02-28T18:40:35;5.90;98.30
13998;DHT22;7074;51.508;7.018;2023-02-28T18:43:03;5.90;98.10
13998;DHT22;7074;51.508;7.018;2023-02-28T18:45:30;5.90;98.00
13998;DHT22;7074;51.508;7.018;2023-02-28T18:48:01;5.90;98.00
13998;DHT22;7074;51.508;7.018;2023-02-28T18:50:28;5.80;98.30
13998;DHT22;7074;51.508;7.018;2023-02-28T18:52:55;5.80;98.30
13998;DHT22;7074;51.508;7.018;2023-02-28T18:55:25;5.80;98.30
13998;DHT22;7074;51.508;7.018;2023-02-28T18:57:52;5.70;98.50
13998;DHT22;7074;51.508;7.018;2023-02-28T19:00:21;5.70;98.70
13998;DHT22;7074;51.508;7.018;2023-02-28T19:02:50;5.50;99.00
13998;DHT22;7074;51.508;7.018;2023-02-28T19:05:18;5.50;99.40
13998;DHT22;7074;51.508;7.018;2023-02-28T19:07:46;5.50;99.40
13998;DHT22;7074;51.508;7.018;2023-02-28T19:10:14;5.50;99.70
13998;DHT22;7074;51.508;7.018;2023-02-28T19:12:43;5.40;99.70
13998;DHT22;7074;51.508;7.018;2023-02-28T19:15:11;5.50;99.80
13998;DHT22;7074;51.508;7.018;2023-02-28T19:17:38;5.40;99.90
13998;DHT22;7074;51.508;7.018;2023-02-28T19:20:07;5.40;99.80
13998;DHT22;7074;51.508;7.018;2023-02-28T19:22:35;5.40;99.60
13998;DHT22;7074;51.508;7.018;2023-02-28T19:25:05;5.40;99.90